createdAt,value
2018-11-23T00:00:08.236Z,5.50
2018-11-23T00:02:36.660Z,5.50
2018-11-23T00:05:05.378Z,5.50
2018-11-23T00:07:33.809Z,5.50
2018-11-23T00:10:02.269Z,5.50
2018-11-23T00:12:30.715Z,5.50
2018-11-23T00:14:59.115Z,5.50
2018-11-23T00:17:27.581Z,5.60
2018-11-23T00:19:56.012Z,5.60
2018-11-23T00:22:24.403Z,5.60
2018-11-23T00:24:52.864Z,5.70
2018-11-23T00:27:21.346Z,5.70
2018-11-23T00:29:49.768Z,5.60
2018-11-23T00:32:18.204Z,5.70
2018-11-23T00:34:46.653Z,5.70
2018-11-23T00:37:15.066Z,5.70
2018-11-23T00:39:43.485Z,5.70
2018-11-23T00:42:11.891Z,5.70
2018-11-23T00:44:40.325Z,5.70
2018-11-23T00:47:08.751Z,5.70
2018-11-23T00:49:37.180Z,5.60
2018-11-23T00:52:06.006Z,5.60
2018-11-23T00:54:34.660Z,5.60
2018-11-23T00:57:03.055Z,5.50
2018-11-23T00:59:31.469Z,5.50
2018-11-23T01:02:04.766Z,5.50
2018-11-23T01:04:34.179Z,5.50
2018-11-23T01:07:03.074Z,5.50
2018-11-23T01:09:31.489Z,5.40
2018-11-23T01:11:59.922Z,5.40
2018-11-23T01:14:28.342Z,5.40
2018-11-23T01:16:56.812Z,5.40
2018-11-23T01:19:25.259Z,5.40
2018-11-23T01:21:53.678Z,5.40
2018-11-23T01:24:22.108Z,5.40
2018-11-23T01:26:50.538Z,5.50
2018-11-23T01:29:19.001Z,5.40
2018-11-23T01:31:47.401Z,5.40
2018-11-23T01:34:15.862Z,5.30
2018-11-23T01:36:44.276Z,5.30
2018-11-23T01:39:12.707Z,5.30
2018-11-23T01:41:41.161Z,5.30
2018-11-23T01:44:09.863Z,5.30
2018-11-23T01:46:38.368Z,5.30
2018-11-23T01:49:06.873Z,5.20
2018-11-23T01:51:35.265Z,5.30
2018-11-23T01:54:03.702Z,5.30
2018-11-23T01:56:32.109Z,5.40
2018-11-23T01:59:00.516Z,5.40
2018-11-23T02:01:28.916Z,5.40
2018-11-23T02:03:57.319Z,5.50
2018-11-23T02:06:25.734Z,5.50
2018-11-23T02:08:54.138Z,5.50
2018-11-23T02:11:22.547Z,5.50
2018-11-23T02:13:51.009Z,5.60
2018-11-23T02:16:19.495Z,5.60
2018-11-23T02:18:47.901Z,5.70
2018-11-23T02:21:16.344Z,5.70
2018-11-23T02:23:44.764Z,5.70
2018-11-23T02:26:13.244Z,5.80
2018-11-23T02:28:41.698Z,5.70
2018-11-23T02:31:10.472Z,5.70
2018-11-23T02:33:40.389Z,5.80
2018-11-23T02:36:09.803Z,5.80
2018-11-23T02:38:38.579Z,5.70
2018-11-23T02:41:06.990Z,5.80
2018-11-23T02:43:35.387Z,5.80
2018-11-23T02:46:03.850Z,5.80
2018-11-23T02:48:32.264Z,5.80
2018-11-23T02:51:00.679Z,5.80
2018-11-23T02:53:29.071Z,5.80
2018-11-23T02:55:57.478Z,5.80
2018-11-23T02:58:25.933Z,5.80
2018-11-23T03:00:54.364Z,5.70
2018-11-23T03:03:22.787Z,5.70
2018-11-23T03:05:51.216Z,5.70
2018-11-23T03:08:19.615Z,5.60
2018-11-23T03:10:48.030Z,5.60
2018-11-23T03:13:16.437Z,5.60
2018-11-23T03:15:44.871Z,5.60
2018-11-23T03:18:13.299Z,5.50
2018-11-23T03:20:41.730Z,5.50
2018-11-23T03:23:10.238Z,5.40
2018-11-23T03:25:38.709Z,5.40
2018-11-23T03:28:07.121Z,5.40
2018-11-23T03:30:35.655Z,5.40
2018-11-23T03:33:04.311Z,5.40
2018-11-23T03:35:32.749Z,5.40
2018-11-23T03:38:01.308Z,5.40
2018-11-23T03:40:29.726Z,5.40
2018-11-23T03:42:58.155Z,5.50
2018-11-23T03:45:26.646Z,5.50
2018-11-23T03:47:55.058Z,5.50
2018-11-23T03:50:23.571Z,5.50
2018-11-23T03:52:51.983Z,5.50
2018-11-23T03:55:20.399Z,5.50
2018-11-23T03:57:48.812Z,5.50
2018-11-23T04:00:19.036Z,5.40
2018-11-23T04:02:48.013Z,5.50
2018-11-23T04:05:16.788Z,5.50
2018-11-23T04:07:45.398Z,5.40
2018-11-23T04:10:14.777Z,5.40
2018-11-23T04:12:43.674Z,5.40
2018-11-23T04:15:12.579Z,5.30
2018-11-23T04:17:41.551Z,5.30
2018-11-23T04:20:12.595Z,5.20
2018-11-23T04:22:41.695Z,5.20
2018-11-23T04:25:10.459Z,5.10
2018-11-23T04:27:38.899Z,5.00
2018-11-23T04:30:13.154Z,5.00
2018-11-23T04:32:41.602Z,5.00
2018-11-23T04:35:12.062Z,5.00
2018-11-23T04:37:40.656Z,5.00
2018-11-23T04:40:10.456Z,4.90
2018-11-23T04:42:39.239Z,4.80
2018-11-23T04:45:08.143Z,4.80
2018-11-23T04:47:37.014Z,4.70
2018-11-23T04:50:06.326Z,4.70
2018-11-23T04:52:34.783Z,4.60
2018-11-23T04:55:03.291Z,4.60
2018-11-23T04:57:31.717Z,4.60
2018-11-23T05:00:00.127Z,4.60
2018-11-23T05:02:28.603Z,4.60
2018-11-23T05:04:57.016Z,4.60
2018-11-23T05:07:25.440Z,4.60
2018-11-23T05:09:53.885Z,4.60
2018-11-23T05:12:22.338Z,4.60
2018-11-23T05:14:50.776Z,4.60
2018-11-23T05:17:19.289Z,4.60
2018-11-23T05:19:47.734Z,4.50
2018-11-23T05:22:16.179Z,4.50
2018-11-23T05:24:44.592Z,4.40
2018-11-23T05:27:13.117Z,4.50
2018-11-23T05:29:41.523Z,4.40
2018-11-23T05:32:09.965Z,4.40
2018-11-23T05:34:38.351Z,4.40
2018-11-23T05:37:06.807Z,4.50
2018-11-23T05:39:35.262Z,4.50
2018-11-23T05:42:03.671Z,4.50
2018-11-23T05:44:32.077Z,4.50
2018-11-23T05:47:00.504Z,4.50
2018-11-23T05:49:28.954Z,4.60
2018-11-23T05:51:57.369Z,4.60
2018-11-23T05:54:25.784Z,4.60
2018-11-23T05:56:54.220Z,4.70
2018-11-23T05:59:23.028Z,4.70
2018-11-23T06:01:51.496Z,4.70
2018-11-23T06:04:19.920Z,4.70
2018-11-23T06:06:48.349Z,4.70
2018-11-23T06:09:16.823Z,4.80
2018-11-23T06:11:45.223Z,4.80
2018-11-23T06:14:13.642Z,4.80
2018-11-23T06:16:42.053Z,4.80
2018-11-23T06:19:10.482Z,4.80
2018-11-23T06:21:38.889Z,4.90
2018-11-23T06:24:07.291Z,4.90
2018-11-23T06:26:36.054Z,4.90
2018-11-23T06:29:04.489Z,4.90
2018-11-23T06:31:32.927Z,4.90
2018-11-23T06:34:01.384Z,4.90
2018-11-23T06:36:29.801Z,4.90
2018-11-23T06:38:58.219Z,4.90
2018-11-23T06:41:26.634Z,4.90
2018-11-23T06:43:55.052Z,4.90
2018-11-23T06:46:23.458Z,5.00
2018-11-23T06:48:51.901Z,5.00
2018-11-23T06:51:20.314Z,5.10
2018-11-23T06:53:48.734Z,5.10
2018-11-23T06:56:17.148Z,5.00
2018-11-23T06:58:45.537Z,5.00
2018-11-23T07:01:13.984Z,5.00
2018-11-23T07:03:42.402Z,4.90
2018-11-23T07:06:10.790Z,4.90
2018-11-23T07:08:39.232Z,4.90
2018-11-23T07:11:07.644Z,4.90
2018-11-23T07:13:36.107Z,4.80
2018-11-23T07:16:04.548Z,4.80
2018-11-23T07:18:32.973Z,4.80
2018-11-23T07:21:01.487Z,4.80
2018-11-23T07:23:29.949Z,4.80
2018-11-23T07:25:58.402Z,4.90
2018-11-23T07:28:26.877Z,4.90
2018-11-23T07:31:02.004Z,5.00
2018-11-23T07:33:23.849Z,5.00
2018-11-23T07:35:52.274Z,5.10
2018-11-23T07:38:20.705Z,5.20
2018-11-23T07:41:57.990Z,5.30
2018-11-23T07:44:26.405Z,5.30
2018-11-23T07:46:54.821Z,5.40
2018-11-23T07:49:23.240Z,5.40
2018-11-23T07:51:51.687Z,5.50
2018-11-23T07:54:20.387Z,5.50
2018-11-23T07:56:48.830Z,5.60
2018-11-23T07:59:17.278Z,5.70
2018-11-23T08:01:45.730Z,5.80
2018-11-23T08:04:14.242Z,5.90
2018-11-23T08:06:42.996Z,5.90
2018-11-23T08:09:11.516Z,6.00
2018-11-23T08:11:39.931Z,6.10
2018-11-23T08:14:08.425Z,6.20
2018-11-23T08:16:36.864Z,6.30
2018-11-23T08:19:05.386Z,6.40
2018-11-23T08:21:34.069Z,6.40
2018-11-23T08:24:02.531Z,6.50
2018-11-23T08:26:31.030Z,6.60
2018-11-23T08:28:59.480Z,6.60
2018-11-23T08:31:27.939Z,6.80
2018-11-23T08:33:56.410Z,6.80
2018-11-23T08:36:24.829Z,6.90
2018-11-23T08:38:53.371Z,7.00
2018-11-23T08:41:21.786Z,7.00
2018-11-23T08:43:50.241Z,7.10
2018-11-23T08:46:18.703Z,7.10
2018-11-23T08:48:47.271Z,7.20
2018-11-23T08:51:15.690Z,7.20
2018-11-23T08:53:44.171Z,7.30
2018-11-23T08:56:12.615Z,7.40
2018-11-23T08:58:41.060Z,7.50
2018-11-23T09:01:09.536Z,7.50
2018-11-23T09:03:37.955Z,7.70
2018-11-23T09:06:06.399Z,7.80
2018-11-23T09:08:34.884Z,8.00
2018-11-23T09:11:03.290Z,8.20
2018-11-23T09:13:32.081Z,8.30
2018-11-23T09:16:00.515Z,8.40
2018-11-23T09:18:28.963Z,8.50
2018-11-23T09:20:57.415Z,8.60
2018-11-23T09:23:25.828Z,8.70
2018-11-23T09:25:54.314Z,8.90
2018-11-23T09:28:22.813Z,9.00
2018-11-23T09:30:51.226Z,9.10
2018-11-23T09:33:19.650Z,9.20
2018-11-23T09:35:48.294Z,9.30
2018-11-23T09:38:16.797Z,9.40
2018-11-23T09:40:45.319Z,9.50
2018-11-23T09:43:13.839Z,9.60
2018-11-23T09:45:42.392Z,9.80
2018-11-23T09:48:10.979Z,9.90
2018-11-23T09:50:39.472Z,10.10
2018-11-23T09:53:08.065Z,10.00
2018-11-23T09:55:37.441Z,10.00
2018-11-23T09:58:06.023Z,10.10
2018-11-23T10:00:35.761Z,10.20
2018-11-23T10:03:05.073Z,10.40
2018-11-23T10:08:04.391Z,10.90
2018-11-23T10:10:32.938Z,11.10
2018-11-23T10:13:01.433Z,11.00
2018-11-23T10:15:31.004Z,10.90
2018-11-23T10:17:59.477Z,10.80
2018-11-23T10:20:29.294Z,10.70
2018-11-23T10:22:57.757Z,10.60
2018-11-23T10:25:28.526Z,10.50
2018-11-23T10:27:57.198Z,10.50
2018-11-23T10:30:31.084Z,10.70
2018-11-23T10:33:00.906Z,11.50
2018-11-23T10:35:29.575Z,12.60
2018-11-23T10:37:59.392Z,13.70
2018-11-23T10:40:30.406Z,14.20
2018-11-23T10:42:58.987Z,14.10
2018-11-23T10:45:29.108Z,14.30
2018-11-23T10:47:58.544Z,14.20
2018-11-23T10:50:28.848Z,13.90
2018-11-23T10:52:57.312Z,13.60
2018-11-23T10:55:28.694Z,13.10
2018-11-23T10:57:57.271Z,12.70
2018-11-23T11:00:31.251Z,12.40
2018-11-23T11:03:02.430Z,12.20
2018-11-23T11:05:36.819Z,11.90
2018-11-23T11:08:05.823Z,11.70
2018-11-23T11:10:34.351Z,11.60
2018-11-23T11:13:02.889Z,11.40
2018-11-23T11:15:31.778Z,11.40
2018-11-23T11:18:00.628Z,11.30
2018-11-23T11:20:29.088Z,11.30
2018-11-23T11:23:04.091Z,11.40
2018-11-23T11:25:32.531Z,12.70
2018-11-23T11:28:00.958Z,13.80
2018-11-23T11:30:29.395Z,14.30
2018-11-23T11:32:57.854Z,15.30
2018-11-23T11:35:26.280Z,15.60
2018-11-23T11:37:54.687Z,15.10
2018-11-23T11:40:23.147Z,14.50
2018-11-23T11:42:51.593Z,13.80
2018-11-23T11:45:20.000Z,13.40
2018-11-23T11:47:48.728Z,13.30
2018-11-23T11:50:17.173Z,13.80
2018-11-23T11:52:46.980Z,16.30
2018-11-23T11:55:19.870Z,19.00
2018-11-23T11:57:48.835Z,20.60
2018-11-23T12:00:18.689Z,21.60
2018-11-23T12:02:47.748Z,22.50
2018-11-23T12:05:16.198Z,22.70
2018-11-23T12:07:44.643Z,23.40
2018-11-23T12:10:22.166Z,23.60
2018-11-23T12:12:50.599Z,23.80
2018-11-23T12:15:19.057Z,23.60
2018-11-23T12:17:47.505Z,23.70
2018-11-23T12:20:23.641Z,23.90
2018-11-23T12:22:52.499Z,24.00
2018-11-23T12:25:21.580Z,23.60
2018-11-23T12:27:50.033Z,23.50
2018-11-23T12:30:19.761Z,23.70
2018-11-23T12:32:49.590Z,23.60
2018-11-23T12:35:19.101Z,23.00
2018-11-23T12:37:47.533Z,23.00
2018-11-23T12:40:17.171Z,22.50
2018-11-23T12:42:46.353Z,22.30
2018-11-23T12:45:16.279Z,22.30
2018-11-23T12:47:44.690Z,22.00
2018-11-23T12:50:16.151Z,21.80
2018-11-23T12:52:44.646Z,21.60
2018-11-23T12:55:13.579Z,21.40
2018-11-23T12:57:42.354Z,21.30
2018-11-23T13:00:20.619Z,21.40
2018-11-23T13:02:50.909Z,21.30
2018-11-23T13:05:20.071Z,21.20
2018-11-23T13:07:48.988Z,21.40
2018-11-23T13:10:17.471Z,21.20
2018-11-23T13:12:50.713Z,21.20
2018-11-23T13:15:14.473Z,21.20
2018-11-23T13:17:42.890Z,21.10
2018-11-23T13:20:13.037Z,20.80
2018-11-23T13:22:41.472Z,21.30
2018-11-23T13:25:12.526Z,21.30
2018-11-23T13:27:40.962Z,21.10
2018-11-23T13:30:11.502Z,21.20
2018-11-23T13:32:40.409Z,21.50
2018-11-23T13:35:10.436Z,21.60
2018-11-23T13:37:38.904Z,21.70
2018-11-23T13:40:10.054Z,22.00
2018-11-23T13:42:38.471Z,21.90
2018-11-23T13:45:08.325Z,22.10
2018-11-23T13:47:36.764Z,22.30
2018-11-23T13:50:06.828Z,22.30
2018-11-23T13:52:35.247Z,22.00
2018-11-23T13:55:03.888Z,20.60
2018-11-23T13:57:32.334Z,18.80
2018-11-23T14:00:00.756Z,17.40
2018-11-23T14:02:29.185Z,16.20
2018-11-23T14:04:57.598Z,15.40
2018-11-23T14:07:26.421Z,14.60
2018-11-23T14:09:54.884Z,14.00
2018-11-23T14:12:23.346Z,13.50
2018-11-23T14:14:51.838Z,13.10
2018-11-23T14:17:20.273Z,12.80
2018-11-23T14:19:48.688Z,12.60
2018-11-23T14:22:17.116Z,12.50
2018-11-23T14:24:45.538Z,12.30
2018-11-23T14:27:13.953Z,12.20
2018-11-23T14:29:42.383Z,12.00
2018-11-23T14:32:10.785Z,11.80
2018-11-23T14:34:39.260Z,11.70
2018-11-23T14:37:07.726Z,11.50
2018-11-23T14:39:36.201Z,11.40
2018-11-23T14:42:05.187Z,11.20
2018-11-23T14:44:33.705Z,11.20
2018-11-23T14:47:02.154Z,11.10
2018-11-23T14:49:30.565Z,11.10
2018-11-23T14:51:58.987Z,11.00
2018-11-23T14:54:27.425Z,10.90
2018-11-23T14:56:55.921Z,10.90
2018-11-23T14:59:24.352Z,10.80
2018-11-23T15:01:52.816Z,10.70
2018-11-23T15:04:21.276Z,10.60
2018-11-23T15:06:49.767Z,10.50
2018-11-23T15:09:18.249Z,10.40
2018-11-23T15:11:46.762Z,10.20
2018-11-23T15:14:15.195Z,10.10
2018-11-23T15:16:43.626Z,10.00
2018-11-23T15:19:12.050Z,9.80
2018-11-23T15:21:40.495Z,9.70
2018-11-23T15:24:08.956Z,9.60
2018-11-23T15:26:37.447Z,9.50
2018-11-23T15:29:06.158Z,9.40
2018-11-23T15:31:34.589Z,9.30
2018-11-23T15:34:03.053Z,9.20
2018-11-23T15:36:31.484Z,9.10
2018-11-23T15:38:59.937Z,9.00
2018-11-23T15:41:28.379Z,8.90
2018-11-23T15:43:56.786Z,8.80
2018-11-23T15:46:25.335Z,8.60
2018-11-23T15:48:53.900Z,8.50
2018-11-23T15:51:22.365Z,8.40
2018-11-23T15:53:50.826Z,8.20
2018-11-23T15:56:19.265Z,8.10
2018-11-23T15:58:47.686Z,8.00
2018-11-23T16:01:16.164Z,7.90
2018-11-23T16:03:45.285Z,7.90
2018-11-23T16:06:13.741Z,7.80
2018-11-23T16:08:42.292Z,7.70
2018-11-23T16:11:10.765Z,7.60
2018-11-23T16:13:39.180Z,7.60
2018-11-23T16:16:07.581Z,7.50
2018-11-23T16:18:36.067Z,7.50
2018-11-23T16:21:04.746Z,7.40
2018-11-23T16:23:33.278Z,7.40
2018-11-23T16:26:01.763Z,7.30
2018-11-23T16:28:30.207Z,7.30
2018-11-23T16:30:58.651Z,7.30
2018-11-23T16:33:27.116Z,7.20
2018-11-23T16:35:55.823Z,7.20
2018-11-23T16:38:24.698Z,7.20
2018-11-23T16:40:54.746Z,7.20
2018-11-23T16:43:23.579Z,7.20
2018-11-23T16:45:52.004Z,7.10
2018-11-23T16:48:21.291Z,7.10
2018-11-23T16:50:49.838Z,7.00
2018-11-23T16:53:19.370Z,7.00
2018-11-23T16:55:47.927Z,7.00
2018-11-23T16:58:16.460Z,6.90
2018-11-23T17:00:47.171Z,6.80
2018-11-23T17:03:18.250Z,6.80
2018-11-23T17:05:54.731Z,6.70
2018-11-23T17:08:23.619Z,6.60
2018-11-23T17:10:54.969Z,6.60
2018-11-23T17:13:23.755Z,6.50
2018-11-23T17:15:52.211Z,6.40
2018-11-23T17:18:20.688Z,6.40
2018-11-23T17:20:49.144Z,6.30
2018-11-23T17:23:17.673Z,6.30
2018-11-23T17:25:46.104Z,6.20
2018-11-23T17:28:14.556Z,6.20
2018-11-23T17:30:43.019Z,6.20
2018-11-23T17:33:11.454Z,6.10
2018-11-23T17:35:39.923Z,6.10
2018-11-23T17:38:08.361Z,6.00
2018-11-23T17:40:38.607Z,6.00
2018-11-23T17:43:07.443Z,6.00
2018-11-23T17:45:36.041Z,5.90
2018-11-23T17:48:05.023Z,5.90
2018-11-23T17:50:34.838Z,5.80
2018-11-23T17:53:03.531Z,5.80
2018-11-23T17:55:32.230Z,5.70
2018-11-23T17:58:00.823Z,5.70
2018-11-23T18:00:38.498Z,5.70
2018-11-23T18:03:01.391Z,5.80
2018-11-23T18:05:30.843Z,5.80
2018-11-23T18:07:59.977Z,5.70
2018-11-23T18:10:29.890Z,5.70
2018-11-23T18:12:59.094Z,5.70
2018-11-23T18:15:28.909Z,5.70
2018-11-23T18:17:58.385Z,5.70
2018-11-23T18:20:27.727Z,5.70
2018-11-23T18:22:56.906Z,5.70
2018-11-23T18:25:29.788Z,5.70
2018-11-23T18:28:00.266Z,5.60
2018-11-23T18:30:31.733Z,5.60
2018-11-23T18:33:01.041Z,5.60
2018-11-23T18:35:29.520Z,5.60
2018-11-23T18:37:57.968Z,5.60
2018-11-23T18:40:26.448Z,5.50
2018-11-23T18:42:54.928Z,5.50
2018-11-23T18:45:23.438Z,5.50
2018-11-23T18:47:51.846Z,5.50
2018-11-23T18:50:20.316Z,5.50
2018-11-23T18:52:48.811Z,5.50
2018-11-23T18:55:18.236Z,5.50
2018-11-23T18:57:45.788Z,5.50
2018-11-23T19:00:15.650Z,5.50
2018-11-23T19:02:46.259Z,5.40
2018-11-23T19:05:20.163Z,5.50
2018-11-23T19:07:48.674Z,5.50
2018-11-23T19:10:17.149Z,5.40
2018-11-23T19:12:45.599Z,5.50
2018-11-23T19:15:15.217Z,5.50
2018-11-23T19:17:43.669Z,5.50
2018-11-23T19:20:17.296Z,5.50
2018-11-23T19:22:46.870Z,5.50
2018-11-23T19:25:15.333Z,5.60
2018-11-23T19:27:43.746Z,5.50
2018-11-23T19:30:14.597Z,5.60
2018-11-23T19:32:43.062Z,5.60
2018-11-23T19:35:11.544Z,5.60
2018-11-23T19:37:40.006Z,5.70
2018-11-23T19:40:10.063Z,5.60
2018-11-23T19:42:38.575Z,5.60
2018-11-23T19:45:09.252Z,5.70
2018-11-23T19:47:37.741Z,5.80
2018-11-23T19:50:08.729Z,5.80
2018-11-23T19:52:37.181Z,5.90
2018-11-23T19:55:06.063Z,5.90
2018-11-23T19:57:34.531Z,6.00
2018-11-23T20:00:03.069Z,6.00
2018-11-23T20:02:31.538Z,6.00
2018-11-23T20:04:59.971Z,6.00
2018-11-23T20:07:28.404Z,6.10
2018-11-23T20:09:56.855Z,6.00
2018-11-23T20:12:25.339Z,6.10
2018-11-23T20:14:53.748Z,6.10
2018-11-23T20:17:22.196Z,6.10
2018-11-23T20:19:50.622Z,6.10
2018-11-23T20:22:19.077Z,6.10
2018-11-23T20:24:47.523Z,6.10
2018-11-23T20:27:16.025Z,6.10
2018-11-23T20:29:44.484Z,6.00
2018-11-23T20:32:13.000Z,6.10
2018-11-23T20:34:41.545Z,6.10
2018-11-23T20:37:09.953Z,6.10
2018-11-23T20:39:38.404Z,6.10
2018-11-23T20:42:07.585Z,6.10
2018-11-23T20:44:36.224Z,6.10
2018-11-23T20:47:04.821Z,6.00
2018-11-23T20:49:33.282Z,6.00
2018-11-23T20:52:02.450Z,6.00
2018-11-23T20:54:30.363Z,6.00
2018-11-23T20:56:58.879Z,6.00
2018-11-23T20:59:27.468Z,5.90
2018-11-23T21:01:55.973Z,5.90
2018-11-23T21:04:24.390Z,5.80
2018-11-23T21:06:52.837Z,5.80
2018-11-23T21:09:21.333Z,5.80
2018-11-23T21:11:49.830Z,5.80
2018-11-23T21:14:18.408Z,5.70
2018-11-23T21:16:46.879Z,5.70
2018-11-23T21:19:15.457Z,5.70
2018-11-23T21:21:43.936Z,5.60
2018-11-23T21:24:12.435Z,5.60
2018-11-23T21:26:41.100Z,5.60
2018-11-23T21:29:09.660Z,5.50
2018-11-23T21:31:38.182Z,5.50
2018-11-23T21:34:06.856Z,5.50
2018-11-23T21:36:35.392Z,5.50
2018-11-23T21:39:13.357Z,5.50
2018-11-23T21:41:34.576Z,5.40
2018-11-23T21:44:03.109Z,5.50
2018-11-23T21:46:31.547Z,5.50
2018-11-23T21:48:59.977Z,5.40
2018-11-23T21:51:28.858Z,5.40
2018-11-23T21:53:57.480Z,5.40
2018-11-23T21:56:25.880Z,5.30
2018-11-23T21:58:54.350Z,5.30
2018-11-23T22:01:22.956Z,5.30
2018-11-23T22:03:51.407Z,5.30
2018-11-23T22:06:19.804Z,5.30
2018-11-23T22:08:48.241Z,5.30
2018-11-23T22:11:16.684Z,5.30
2018-11-23T22:13:45.102Z,5.30
2018-11-23T22:16:13.564Z,5.30
2018-11-23T22:18:42.015Z,5.20
2018-11-23T22:21:10.559Z,5.20
2018-11-23T22:23:39.109Z,5.20
2018-11-23T22:26:07.516Z,5.20
2018-11-23T22:28:35.995Z,5.20
2018-11-23T22:31:04.571Z,5.20
2018-11-23T22:33:33.078Z,5.20
2018-11-23T22:36:01.535Z,5.20
2018-11-23T22:38:30.008Z,5.20
2018-11-23T22:40:58.440Z,5.20
2018-11-23T22:43:26.852Z,5.20
2018-11-23T22:45:55.264Z,5.20
2018-11-23T22:48:23.665Z,5.20
2018-11-23T22:50:52.081Z,5.20
2018-11-23T22:53:20.520Z,5.20
2018-11-23T22:55:48.989Z,5.20
2018-11-23T22:58:17.430Z,5.20
2018-11-23T23:00:46.110Z,5.20
2018-11-23T23:03:14.736Z,5.20
2018-11-23T23:05:43.308Z,5.20
2018-11-23T23:08:11.835Z,5.20
2018-11-23T23:10:40.350Z,5.20
2018-11-23T23:13:08.903Z,5.20
2018-11-23T23:15:37.950Z,5.20
2018-11-23T23:18:06.494Z,5.20
2018-11-23T23:20:34.941Z,5.20
2018-11-23T23:23:03.355Z,5.30
2018-11-23T23:25:31.869Z,5.30
2018-11-23T23:28:00.269Z,5.30
2018-11-23T23:30:28.734Z,5.40
2018-11-23T23:32:57.147Z,5.40
2018-11-23T23:35:25.550Z,5.40
2018-11-23T23:37:53.992Z,5.40
2018-11-23T23:40:22.433Z,5.40
2018-11-23T23:42:51.287Z,5.40
2018-11-23T23:45:19.740Z,5.40
2018-11-23T23:47:48.224Z,5.40
2018-11-23T23:50:18.748Z,5.40
2018-11-23T23:52:47.517Z,5.40
2018-11-23T23:55:16.006Z,5.40
2018-11-23T23:57:45.452Z,5.40
